sensor_id;sensor_type;location;lat;lon;timestamp;temperature;humidity
53645;DHT22;39547;45.554;12.068;2023-04-01T00:05:16;10.80;84.10
53645;DHT22;39547;45.554;12.068;2023-04-01T00:11:17;10.80;84.10
53645;DHT22;39547;45.554;12.068;2023-04-01T00:17:19;10.80;84.10
53645;DHT22;39547;45.554;12.068;2023-04-01T00:23:21;10.70;84.10
53645;DHT22;39547;45.554;12.068;2023-04-01T00:29:23;10.70;84.10
53645;DHT22;39547;45.554;12.068;2023-04-01T00:35:25;10.70;84.20
53645;DHT22;39547;45.554;12.068;2023-04-01T00:41:27;10.70;84.30
53645;DHT22;39547;45.554;12.068;2023-04-01T00:47:29;10.80;84.40
53645;DHT22;39547;45.554;12.068;2023-04-01T00:53:31;10.90;84.40
53645;DHT22;39547;45.554;12.068;2023-04-01T00:59:37;11.00;84.40
53645;DHT22;39547;45.554;12.068;2023-04-01T01:05:48;11.00;84.30
53645;DHT22;39547;45.554;12.068;2023-04-01T01:18:13;11.00;83.90
53645;DHT22;39547;45.554;12.068;2023-04-01T01:24:49;11.10;84.10
53645;DHT22;39547;45.554;12.068;2023-04-01T01:31:03;11.10;84.10
53645;DHT22;39547;45.554;12.068;2023-04-01T01:37:14;11.20;84.10
53645;DHT22;39547;45.554;12.068;2023-04-01T01:43:21;11.20;83.90
53645;DHT22;39547;45.554;12.068;2023-04-01T01:49:24;11.00;84.10
53645;DHT22;39547;45.554;12.068;2023-04-01T02:01:37;10.60;84.10
53645;DHT22;39547;45.554;12.068;2023-04-01T02:07:51;10.50;84.10
53645;DHT22;39547;45.554;12.068;2023-04-01T02:14:06;10.20;84.30
53645;DHT22;39547;45.554;12.068;2023-04-01T02:20:15;10.20;84.30
53645;DHT22;39547;45.554;12.068;2023-04-01T02:26:17;10.20;84.40
53645;DHT22;39547;45.554;12.068;2023-04-01T02:32:19;10.10;84.60
53645;DHT22;39547;45.554;12.068;2023-04-01T02:38:21;10.00;84.30
53645;DHT22;39547;45.554;12.068;2023-04-01T02:44:23;10.00;84.70
53645;DHT22;39547;45.554;12.068;2023-04-01T02:50:25;10.00;84.60
53645;DHT22;39547;45.554;12.068;2023-04-01T02:56:26;9.90;84.50
53645;DHT22;39547;45.554;12.068;2023-04-01T03:02:28;9.90;84.60
53645;DHT22;39547;45.554;12.068;2023-04-01T03:08:29;9.80;84.50
53645;DHT22;39547;45.554;12.068;2023-04-01T03:14:31;9.80;84.60
53645;DHT22;39547;45.554;12.068;2023-04-01T03:20:32;9.80;84.50
53645;DHT22;39547;45.554;12.068;2023-04-01T03:26:33;9.70;84.40
53645;DHT22;39547;45.554;12.068;2023-04-01T03:32:35;9.50;84.60
53645;DHT22;39547;45.554;12.068;2023-04-01T03:38:37;9.50;85.00
53645;DHT22;39547;45.554;12.068;2023-04-01T03:44:38;9.50;85.10
53645;DHT22;39547;45.554;12.068;2023-04-01T03:50:40;9.40;84.80
53645;DHT22;39547;45.554;12.068;2023-04-01T03:56:42;9.30;85.00
53645;DHT22;39547;45.554;12.068;2023-04-01T04:02:44;9.40;85.10
53645;DHT22;39547;45.554;12.068;2023-04-01T04:08:49;9.40;85.10
53645;DHT22;39547;45.554;12.068;2023-04-01T04:14:50;9.30;85.00
53645;DHT22;39547;45.554;12.068;2023-04-01T04:20:52;9.30;84.90
53645;DHT22;39547;45.554;12.068;2023-04-01T04:26:54;9.30;84.80
53645;DHT22;39547;45.554;12.068;2023-04-01T04:32:56;9.20;84.90
53645;DHT22;39547;45.554;12.068;2023-04-01T04:38:57;9.20;85.00
53645;DHT22;39547;45.554;12.068;2023-04-01T04:45:03;9.20;85.00
53645;DHT22;39547;45.554;12.068;2023-04-01T04:51:05;9.10;84.90
53645;DHT22;39547;45.554;12.068;2023-04-01T04:57:07;9.10;84.90
53645;DHT22;39547;45.554;12.068;2023-04-01T05:03:15;9.00;84.80
53645;DHT22;39547;45.554;12.068;2023-04-01T05:09:16;8.90;84.70
53645;DHT22;39547;45.554;12.068;2023-04-01T05:15:18;8.90;85.00
53645;DHT22;39547;45.554;12.068;2023-04-01T05:21:19;8.80;85.10
53645;DHT22;39547;45.554;12.068;2023-04-01T05:27:21;8.90;85.20
53645;DHT22;39547;45.554;12.068;2023-04-01T05:33:23;8.90;85.10
53645;DHT22;39547;45.554;12.068;2023-04-01T05:39:24;9.00;85.10
53645;DHT22;39547;45.554;12.068;2023-04-01T05:45:26;9.00;84.90
53645;DHT22;39547;45.554;12.068;2023-04-01T05:51:37;8.90;84.50
53645;DHT22;39547;45.554;12.068;2023-04-01T05:57:38;8.80;85.00
53645;DHT22;39547;45.554;12.068;2023-04-01T06:03:40;8.90;85.60
53645;DHT22;39547;45.554;12.068;2023-04-01T06:09:42;9.00;85.50
53645;DHT22;39547;45.554;12.068;2023-04-01T06:15:57;9.20;85.70
53645;DHT22;39547;45.554;12.068;2023-04-01T06:35:19;9.90;85.40
53645;DHT22;39547;45.554;12.068;2023-04-01T06:54:20;10.40;84.70
53645;DHT22;39547;45.554;12.068;2023-04-01T07:00:43;10.50;84.60
53645;DHT22;39547;45.554;12.068;2023-04-01T07:07:15;10.70;84.70
53645;DHT22;39547;45.554;12.068;2023-04-01T07:13:39;10.80;84.60
53645;DHT22;39547;45.554;12.068;2023-04-01T07:20:05;11.00;84.20
53645;DHT22;39547;45.554;12.068;2023-04-01T07:26:20;11.20;83.40
53645;DHT22;39547;45.554;12.068;2023-04-01T08:30:45;13.50;79.10
53645;DHT22;39547;45.554;12.068;2023-04-01T08:37:20;13.70;77.70
53645;DHT22;39547;45.554;12.068;2023-04-01T08:56:26;14.30;74.40
53645;DHT22;39547;45.554;12.068;2023-04-01T09:16:13;14.90;71.60
53645;DHT22;39547;45.554;12.068;2023-04-01T09:48:01;16.10;67.90
53645;DHT22;39547;45.554;12.068;2023-04-01T09:54:13;16.30;64.90
53645;DHT22;39547;45.554;12.068;2023-04-01T10:26:40;17.20;61.20
53645;DHT22;39547;45.554;12.068;2023-04-01T10:53:21;18.00;59.50
53645;DHT22;39547;45.554;12.068;2023-04-01T11:01:20;18.20;59.70
53645;DHT22;39547;45.554;12.068;2023-04-01T11:46:15;19.00;57.40
53645;DHT22;39547;45.554;12.068;2023-04-01T11:52:44;19.30;56.70
53645;DHT22;39547;45.554;12.068;2023-04-01T12:18:37;20.00;54.70
53645;DHT22;39547;45.554;12.068;2023-04-01T12:24:53;20.70;53.90
53645;DHT22;39547;45.554;12.068;2023-04-01T12:31:25;21.30;53.70
53645;DHT22;39547;45.554;12.068;2023-04-01T12:37:45;21.80;50.50
53645;DHT22;39547;45.554;12.068;2023-04-01T12:50:32;22.60;48.30
53645;DHT22;39547;45.554;12.068;2023-04-01T13:09:52;25.00;47.20
53645;DHT22;39547;45.554;12.068;2023-04-01T13:48:00;27.90;40.10
53645;DHT22;39547;45.554;12.068;2023-04-01T14:00:48;28.20;37.60
53645;DHT22;39547;45.554;12.068;2023-04-01T14:07:04;28.80;37.00
53645;DHT22;39547;45.554;12.068;2023-04-01T14:14:04;28.60;36.40
53645;DHT22;39547;45.554;12.068;2023-04-01T14:45:35;29.50;34.50
53645;DHT22;39547;45.554;12.068;2023-04-01T14:51:44;28.40;34.60
53645;DHT22;39547;45.554;12.068;2023-04-01T14:58:20;26.40;37.30
53645;DHT22;39547;45.554;12.068;2023-04-01T15:11:16;24.10;43.50
53645;DHT22;39547;45.554;12.068;2023-04-01T15:23:50;21.80;48.20
53645;DHT22;39547;45.554;12.068;2023-04-01T15:30:13;21.40;49.40
53645;DHT22;39547;45.554;12.068;2023-04-01T15:36:30;21.40;49.70
53645;DHT22;39547;45.554;12.068;2023-04-01T15:49:03;21.50;50.50
53645;DHT22;39547;45.554;12.068;2023-04-01T16:20:03;23.80;47.30
53645;DHT22;39547;45.554;12.068;2023-04-01T16:26:37;22.90;47.90
53645;DHT22;39547;45.554;12.068;2023-04-01T16:33:08;21.30;50.60
53645;DHT22;39547;45.554;12.068;2023-04-01T16:39:33;20.60;52.20
53645;DHT22;39547;45.554;12.068;2023-04-01T16:45:56;19.80;53.70
53645;DHT22;39547;45.554;12.068;2023-04-01T16:58:20;18.70;56.90
53645;DHT22;39547;45.554;12.068;2023-04-01T17:17:31;17.60;58.80
53645;DHT22;39547;45.554;12.068;2023-04-01T17:23:52;17.30;59.30
53645;DHT22;39547;45.554;12.068;2023-04-01T17:30:17;17.00;59.80
53645;DHT22;39547;45.554;12.068;2023-04-01T17:36:45;16.70;60.20
53645;DHT22;39547;45.554;12.068;2023-04-01T18:08:22;15.70;62.50
53645;DHT22;39547;45.554;12.068;2023-04-01T18:34:06;15.10;66.80
53645;DHT22;39547;45.554;12.068;2023-04-01T18:39:50;14.90;67.70
53645;DHT22;39547;45.554;12.068;2023-04-01T18:46:03;14.70;68.60
53645;DHT22;39547;45.554;12.068;2023-04-01T18:52:37;14.60;68.80
53645;DHT22;39547;45.554;12.068;2023-04-01T19:05:12;14.40;69.50
53645;DHT22;39547;45.554;12.068;2023-04-01T19:11:45;14.40;70.40
53645;DHT22;39547;45.554;12.068;2023-04-01T19:17:58;14.20;71.30
53645;DHT22;39547;45.554;12.068;2023-04-01T19:30:23;14.20;71.70
53645;DHT22;39547;45.554;12.068;2023-04-01T19:36:52;14.10;71.40
53645;DHT22;39547;45.554;12.068;2023-04-01T19:55:32;14.10;71.80
53645;DHT22;39547;45.554;12.068;2023-04-01T20:01:44;14.00;72.40
53645;DHT22;39547;45.554;12.068;2023-04-01T20:07:53;14.00;73.40
53645;DHT22;39547;45.554;12.068;2023-04-01T20:14:09;13.80;73.10
53645;DHT22;39547;45.554;12.068;2023-04-01T20:26:20;13.70;73.90
53645;DHT22;39547;45.554;12.068;2023-04-01T20:45:08;13.50;76.40
53645;DHT22;39547;45.554;12.068;2023-04-01T21:04:10;13.30;76.80
53645;DHT22;39547;45.554;12.068;2023-04-01T21:10:40;13.20;76.50
53645;DHT22;39547;45.554;12.068;2023-04-01T22:07:14;12.80;77.30
53645;DHT22;39547;45.554;12.068;2023-04-01T22:13:23;12.80;77.20
53645;DHT22;39547;45.554;12.068;2023-04-01T22:32:24;12.70;77.30
53645;DHT22;39547;45.554;12.068;2023-04-01T22:51:15;12.70;77.60
53645;DHT22;39547;45.554;12.068;2023-04-01T22:57:37;12.70;77.50
53645;DHT22;39547;45.554;12.068;2023-04-01T23:03:41;12.70;77.60
53645;DHT22;39547;45.554;12.068;2023-04-01T23:09:43;12.60;77.90
53645;DHT22;39547;45.554;12.068;2023-04-01T23:15:45;12.60;78.00
53645;DHT22;39547;45.554;12.068;2023-04-01T23:34:34;12.50;78.70
53645;DHT22;39547;45.554;12.068;2023-04-01T23:40:36;12.40;79.20
53645;DHT22;39547;45.554;12.068;2023-04-01T23:46:40;12.30;79.10
53645;DHT22;39547;45.554;12.068;2023-04-01T23:53:16;12.30;79.30
